Time;durP1;ratioP1;P1;durP2;ratioP2;P2;SDS_P1;SDS_P2;PMS_P1;PMS_P2;Temp;Humidity;BMP_temperature;BMP_pressure;BME280_temperature;BME280_humidity;BME280_pressure;Samples;Min_cycle;Max_cycle;Signal;HPM_P1;HPM_P2
2021/09/26 15:53:28;;;;;;;6.67;4.73;;;;;;;25.46;49.25;100221.97;5033912;27;82197;-67
2021/09/26 15:55:55;;;;;;;6.27;4.37;;;;;;;25.60;49.08;100217.09;5014464;28;20865;-69
2021/09/26 15:58:23;;;;;;;4.93;3.90;;;;;;;25.36;50.04;100213.53;5011305;28;20485;-68
2021/09/26 16:00:51;;;;;;;5.27;4.43;;;;;;;25.36;49.97;100221.75;5009087;28;20550;-68
2021/09/26 16:03:19;;;;;;;4.03;3.50;;;;;;;24.85;51.51;100215.06;5022934;28;20944;-69
2021/09/26 16:05:46;;;;;;;4.73;4.23;;;;;;;25.18;50.61;100214.47;5015995;28;20523;-69
2021/09/26 16:08:15;;;;;;;6.17;4.90;;;;;;;25.15;50.17;100210.34;5014385;28;20490;-71
2021/09/26 16:10:46;;;;;;;6.83;4.20;;;;;;;25.09;50.38;100211.28;5019886;28;20473;-69
2021/09/26 16:13:13;;;;;;;5.00;4.00;;;;;;;24.85;50.90;100215.06;5025277;28;20509;-69
2021/09/26 16:15:41;;;;;;;7.80;4.53;;;;;;;25.05;50.29;100212.81;5014980;28;20548;-69
2021/09/26 16:18:11;;;;;;;5.00;4.47;;;;;;;25.05;50.79;100218.31;5015451;28;20523;-69
2021/09/26 16:20:39;;;;;;;7.87;4.67;;;;;;;24.98;51.30;100214.81;5016364;28;21038;-69
2021/09/26 16:23:08;;;;;;;6.87;4.50;;;;;;;24.91;50.83;100230.50;5005303;28;20650;-69
2021/09/26 16:27:57;;;;;;;8.47;6.47;;;;;;;24.77;51.24;100218.97;5137857;27;20570;-69
2021/09/26 16:30:24;;;;;;;5.40;4.90;;;;;;;24.74;51.54;100219.47;5136453;27;20465;-69
2021/09/26 16:32:53;;;;;;;5.23;4.57;;;;;;;24.70;52.28;100213.59;5132043;27;20469;-69
2021/09/26 16:35:21;;;;;;;5.87;5.00;;;;;;;24.68;52.64;100218.47;5137808;27;20441;-70
2021/09/26 16:37:48;;;;;;;7.60;5.17;;;;;;;24.58;52.53;100210.00;5124047;27;20529;-69
2021/09/26 16:42:35;;;;;;;8.00;5.00;;;;;;;24.49;53.69;100211.38;5156695;27;20370;-69
2021/09/26 16:45:03;;;;;;;11.10;5.43;;;;;;;24.32;53.74;100212.06;5146433;27;20515;-69
2021/09/26 16:49:57;;;;;;;6.33;4.87;;;;;;;24.21;53.48;100226.50;5095861;27;20959;-69
2021/09/26 16:53:34;;;;;;;7.10;5.60;;;;;;;24.10;53.85;100225.38;5156797;27;20615;-68
2021/09/26 16:56:01;;;;;;;10.50;5.87;;;;;;;24.18;53.82;100224.22;5146500;27;20468;-69
2021/09/26 16:58:27;;;;;;;12.43;6.37;;;;;;;24.22;53.91;100228.19;5142551;27;20473;-71
2021/09/26 17:03:16;;;;;;;5.47;4.97;;;;;;;24.11;54.14;100231.69;5158448;27;20888;-67
2021/09/26 17:05:43;;;;;;;6.20;5.07;;;;;;;24.06;54.07;100235.94;5158645;27;20433;-69
2021/09/26 17:08:11;;;;;;;7.63;5.37;;;;;;;24.03;54.36;100241.03;5157498;27;20556;-70
2021/09/26 17:10:38;;;;;;;5.87;5.23;;;;;;;24.01;54.63;100237.72;5158026;27;20456;-71
2021/09/26 17:13:05;;;;;;;7.03;5.53;;;;;;;23.85;54.98;100244.59;5147222;27;20473;-72
2021/09/26 17:15:35;;;;;;;7.33;5.63;;;;;;;23.76;55.49;100238.56;5136325;28;20477;-64
2021/09/26 17:18:01;;;;;;;6.93;5.37;;;;;;;23.78;55.72;100246.53;5152158;27;20494;-68
2021/09/26 17:20:33;;;;;;;8.37;5.43;;;;;;;23.44;56.12;100249.66;5152641;27;20487;-72
2021/09/26 17:23:00;;;;;;;5.93;5.23;;;;;;;23.26;56.38;100244.16;5155020;27;21002;-72
2021/09/26 17:25:29;;;;;;;10.73;5.30;;;;;;;23.27;56.58;100245.81;5157793;27;20523;-70
2021/09/26 17:27:56;;;;;;;6.93;4.90;;;;;;;23.15;56.47;100256.63;5157221;27;20531;-71
2021/09/26 17:30:26;;;;;;;9.70;4.93;;;;;;;23.23;56.83;100259.09;5155873;27;20468;-73
2021/09/26 17:32:55;;;;;;;5.07;4.57;;;;;;;23.18;57.38;100263.56;5157052;27;20463;-70
2021/09/26 17:35:23;;;;;;;5.50;4.87;;;;;;;23.24;57.19;100265.38;5153978;27;20445;-69
2021/09/26 17:37:51;;;;;;;5.33;4.80;;;;;;;22.94;59.13;100269.56;5155806;27;20456;-72
2021/09/26 17:40:23;;;;;;;8.23;5.33;;;;;;;23.18;59.19;100266.28;5153797;27;20445;-71
2021/09/26 17:42:50;;;;;;;7.73;5.27;;;;;;;22.47;61.45;100271.78;5152977;27;20475;-71
2021/09/26 17:45:17;;;;;;;7.63;6.20;;;;;;;22.32;62.22;100276.66;5146611;27;20453;-72
2021/09/26 17:47:44;;;;;;;9.03;6.40;;;;;;;22.21;62.54;100280.06;5147421;27;20476;-72
2021/09/26 17:50:11;;;;;;;6.87;6.00;;;;;;;22.24;63.95;100288.63;5170851;27;20424;-71
2021/09/26 17:52:38;;;;;;;7.90;5.43;;;;;;;22.05;64.05;100289.53;5157770;27;20468;-71
2021/09/26 17:55:08;;;;;;;10.17;6.47;;;;;;;22.04;64.48;100298.75;5151651;27;20453;-72
2021/09/26 17:57:35;;;;;;;8.13;6.10;;;;;;;21.91;65.25;100291.50;5152547;27;20512;-71
2021/09/26 18:00:02;;;;;;;9.10;6.10;;;;;;;21.75;65.24;100300.94;5143755;27;20463;-71
2021/09/26 18:02:28;;;;;;;8.60;5.70;;;;;;;21.87;65.73;100301.13;5153536;27;20524;-71
2021/09/26 18:04:55;;;;;;;7.03;6.30;;;;;;;21.84;66.40;100294.22;5154673;27;20484;-71
2021/09/26 18:07:21;;;;;;;6.33;5.30;;;;;;;21.87;66.17;100299.22;5143313;27;20512;-73
2021/09/26 18:09:48;;;;;;;10.90;7.80;;;;;;;21.75;66.79;100311.81;5156732;27;20463;-73
2021/09/26 18:12:16;;;;;;;12.20;6.63;;;;;;;21.93;66.18;100305.72;5157105;27;20441;-73
2021/09/26 18:14:43;;;;;;;7.63;6.83;;;;;;;21.77;66.48;100323.34;5142162;27;20500;-72
2021/09/26 18:17:10;;;;;;;9.53;6.60;;;;;;;21.64;66.07;100318.75;5132903;27;20453;-72
2021/09/26 18:19:36;;;;;;;10.80;6.90;;;;;;;21.71;67.10;100316.84;5142732;27;20471;-71
2021/09/26 18:22:04;;;;;;;7.17;6.47;;;;;;;21.61;66.70;100316.44;5138239;27;20923;-73
2021/09/26 18:24:30;;;;;;;9.10;7.73;;;;;;;21.51;67.34;100311.44;5133284;27;20513;-72
2021/09/26 18:26:57;;;;;;;9.07;7.50;;;;;;;21.38;67.63;100312.25;5141281;27;20449;-73
2021/09/26 18:29:25;;;;;;;9.73;7.40;;;;;;;21.50;67.64;100317.09;5138821;27;20484;-71
2021/09/26 18:31:52;;;;;;;9.80;7.60;;;;;;;21.33;67.55;100314.75;5134736;27;20441;-73
2021/09/26 18:34:18;;;;;;;7.10;6.13;;;;;;;21.16;66.56;100318.94;5120182;28;20434;-72
2021/09/26 18:36:47;;;;;;;8.27;7.10;;;;;;;21.23;67.63;100315.19;5134213;27;20446;-72
2021/09/26 18:39:15;;;;;;;9.20;7.67;;;;;;;21.35;67.05;100318.13;5140024;27;20446;-72
2021/09/26 18:41:44;;;;;;;8.63;7.40;;;;;;;21.36;66.78;100319.78;5138212;27;20541;-71
2021/09/26 18:44:13;;;;;;;10.70;6.80;;;;;;;21.51;67.86;100324.19;5138897;27;20857;-71
2021/09/26 18:46:42;;;;;;;8.50;6.00;;;;;;;21.53;65.70;100320.22;5139116;27;20544;-72
2021/09/26 18:49:09;;;;;;;7.43;6.70;;;;;;;21.44;66.00;100316.03;5136539;27;20692;-71
2021/09/26 18:51:36;;;;;;;8.23;6.60;;;;;;;21.39;68.91;100324.81;5139728;27;20604;-71
2021/09/26 18:54:04;;;;;;;14.23;6.77;;;;;;;21.31;68.85;100333.19;5141742;27;20461;-71
2021/09/26 18:56:31;;;;;;;8.13;7.33;;;;;;;21.22;69.23;100329.81;5142125;27;20484;-71
2021/09/26 18:58:58;;;;;;;10.73;7.60;;;;;;;21.21;69.37;100322.75;5140128;27;20549;-72
2021/09/26 19:01:27;;;;;;;12.63;7.27;;;;;;;21.26;70.87;100327.53;5141348;27;20497;-71
2021/09/26 19:03:57;;;;;;;7.37;6.30;;;;;;;21.26;70.17;100338.41;5141594;27;20521;-72
2021/09/26 19:06:25;;;;;;;8.70;6.90;;;;;;;21.16;70.20;100337.97;5140890;27;20432;-71
2021/09/26 19:08:51;;;;;;;8.43;7.00;;;;;;;21.05;70.29;100344.88;5140941;27;20887;-72
2021/09/26 19:11:19;;;;;;;8.77;6.70;;;;;;;21.12;70.54;100340.28;5141234;27;20464;-72
2021/09/26 19:13:46;;;;;;;8.43;7.47;;;;;;;21.06;69.55;100347.38;5141098;27;20434;-72
2021/09/26 19:16:14;;;;;;;7.60;6.80;;;;;;;20.96;69.78;100349.66;5138157;27;20525;-72
2021/09/26 19:18:40;;;;;;;7.93;7.13;;;;;;;21.06;70.23;100347.38;5118665;28;20503;-72
2021/09/26 19:21:10;;;;;;;9.50;6.40;;;;;;;21.20;70.15;100350.97;5117275;28;20509;-72
2021/09/26 19:23:37;;;;;;;10.30;7.70;;;;;;;21.11;70.23;100348.63;5106486;28;20478;-72
2021/09/26 19:26:06;;;;;;;8.97;6.83;;;;;;;20.98;70.20;100341.31;5107807;28;20471;-72
2021/09/26 19:28:35;;;;;;;10.30;7.20;;;;;;;21.00;70.13;100347.38;5113210;28;20995;-72
2021/09/26 19:31:04;;;;;;;10.80;7.40;;;;;;;21.09;69.64;100361.59;5101523;28;20482;-71
2021/09/26 19:33:31;;;;;;;9.73;6.70;;;;;;;20.96;70.52;100349.66;5102627;28;20484;-71
2021/09/26 19:35:58;;;;;;;9.40;7.37;;;;;;;20.93;70.35;100358.22;5100819;28;20500;-71
2021/09/26 19:38:26;;;;;;;8.17;6.53;;;;;;;21.19;69.76;100356.59;5102545;28;20525;-71
2021/09/26 19:40:52;;;;;;;9.37;7.37;;;;;;;21.04;70.13;100351.38;5120837;27;20479;-69
2021/09/26 19:43:20;;;;;;;11.03;8.33;;;;;;;20.93;70.84;100360.94;5113471;28;20569;-70
2021/09/26 19:45:47;;;;;;;10.00;7.30;;;;;;;20.85;70.67;100358.44;5102071;28;20470;-70
2021/09/26 19:48:14;;;;;;;7.50;6.80;;;;;;;20.77;71.69;100358.63;5113049;28;20468;-70
2021/09/26 19:50:42;;;;;;;13.80;9.00;;;;;;;20.92;71.22;100362.00;5103761;28;20466;-70
2021/09/26 19:53:10;;;;;;;9.23;7.30;;;;;;;21.11;70.66;100357.66;5112901;28;20437;-70
2021/09/26 19:55:39;;;;;;;10.67;7.30;;;;;;;20.99;70.58;100351.16;5121514;27;20464;-70
2021/09/26 19:58:06;;;;;;;8.93;7.83;;;;;;;20.76;71.89;100354.22;5109882;28;20438;-70
2021/09/26 20:00:33;;;;;;;8.77;7.90;;;;;;;20.60;72.43;100360.84;5115591;28;20479;-70
2021/09/26 20:03:00;;;;;;;10.60;8.30;;;;;;;20.56;72.34;100363.13;5110594;28;20515;-71
2021/09/26 20:05:30;;;;;;;11.93;7.90;;;;;;;20.64;72.41;100362.13;5120619;27;20478;-71
2021/09/26 20:07:58;;;;;;;11.17;7.00;;;;;;;20.53;72.50;100357.25;5109110;28;20489;-71
2021/09/26 20:10:25;;;;;;;15.87;8.60;;;;;;;20.67;71.68;100369.88;5101127;28;20463;-71
2021/09/26 20:12:53;;;;;;;11.37;8.27;;;;;;;20.75;72.31;100352.56;5101509;28;20442;-71
2021/09/26 20:15:23;;;;;;;9.50;8.00;;;;;;;20.77;72.32;100354.03;5100419;28;20550;-70
2021/09/26 20:17:50;;;;;;;9.50;8.63;;;;;;;20.76;72.24;100352.38;5117549;28;20446;-70
2021/09/26 20:20:17;;;;;;;9.10;8.00;;;;;;;20.69;72.60;100346.91;5116831;27;20451;-70
2021/09/26 20:22:44;;;;;;;10.97;7.50;;;;;;;20.79;72.40;100342.94;5119896;28;20541;-71
2021/09/26 20:25:12;;;;;;;10.40;8.20;;;;;;;20.86;72.75;100346.50;5107510;28;20526;-70
2021/09/26 20:27:39;;;;;;;10.00;8.50;;;;;;;20.62;73.88;100346.06;5110779;28;20446;-70
2021/09/26 20:30:10;;;;;;;10.27;8.60;;;;;;;20.65;74.61;100332.03;5107688;27;20500;-70
2021/09/26 20:32:37;;;;;;;10.57;9.47;;;;;;;20.30;75.86;100344.84;5120539;28;20844;-71
2021/09/26 20:35:04;;;;;;;14.70;9.60;;;;;;;20.44;75.24;100337.59;5117240;28;20472;-70
2021/09/26 20:37:31;;;;;;;10.80;9.70;;;;;;;20.84;73.73;100337.72;5110622;28;20509;-70
2021/09/26 20:39:57;;;;;;;13.10;9.27;;;;;;;20.76;73.84;100341.50;5120586;28;20604;-69
2021/09/26 20:42:24;;;;;;;10.83;9.73;;;;;;;20.73;73.64;100336.47;5118714;27;20510;-71
2021/09/26 20:44:51;;;;;;;12.20;11.00;;;;;;;20.66;74.21;100331.00;5119746;28;21142;-71
2021/09/26 20:47:19;;;;;;;12.93;11.37;;;;;;;20.72;74.34;100339.38;5106055;28;21027;-71
2021/09/26 20:49:45;;;;;;;13.13;11.00;;;;;;;20.69;74.14;100327.88;5099202;28;20482;-71
2021/09/26 20:52:12;;;;;;;11.77;10.20;;;;;;;20.74;73.99;100338.13;5113675;28;20557;-70
2021/09/26 20:54:39;;;;;;;13.30;10.50;;;;;;;20.73;73.83;100338.31;5118410;28;20438;-70
2021/09/26 20:57:05;;;;;;;12.57;10.10;;;;;;;20.76;73.75;100338.78;5100976;27;20485;-70
2021/09/26 20:59:32;;;;;;;13.03;11.63;;;;;;;20.66;74.10;100330.19;5099991;28;20471;-70
2021/09/26 21:01:59;;;;;;;12.93;11.07;;;;;;;20.55;74.75;100337.00;5108025;28;20490;-71
2021/09/26 21:04:27;;;;;;;12.43;11.13;;;;;;;20.52;74.76;100340.13;5099009;28;21005;-70
2021/09/26 21:06:54;;;;;;;11.43;10.20;;;;;;;20.65;74.22;100347.50;5113494;28;20498;-71
2021/09/26 21:09:21;;;;;;;12.03;10.90;;;;;;;20.72;74.00;100342.09;5107087;28;20739;-71
2021/09/26 21:11:48;;;;;;;12.33;10.97;;;;;;;20.74;73.70;100342.72;5102986;28;20981;-71
2021/09/26 21:14:15;;;;;;;13.07;11.87;;;;;;;20.74;73.56;100343.56;5117364;28;20477;-72
2021/09/26 21:16:42;;;;;;;12.50;11.20;;;;;;;20.79;73.42;100348.38;5117633;27;20520;-71
2021/09/26 21:19:08;;;;;;;12.57;10.67;;;;;;;20.86;73.06;100352.78;5114393;28;20455;-71
2021/09/26 21:21:36;;;;;;;11.80;10.60;;;;;;;20.87;72.85;100346.31;5103898;28;20578;-72
2021/09/26 21:24:03;;;;;;;13.93;11.27;;;;;;;20.84;72.78;100345.88;5102454;28;20495;-71
2021/09/26 21:26:30;;;;;;;12.17;9.60;;;;;;;20.81;72.85;100349.00;5103277;28;20544;-72
2021/09/26 21:28:56;;;;;;;11.23;9.87;;;;;;;20.84;72.62;100351.31;5112632;28;20536;-71
2021/09/26 21:31:23;;;;;;;12.10;10.90;;;;;;;20.80;72.60;100348.19;5106631;28;20490;-71
2021/09/26 21:33:50;;;;;;;11.53;10.30;;;;;;;20.81;72.67;100346.28;5119179;28;21068;-71
2021/09/26 21:36:16;;;;;;;10.87;9.47;;;;;;;20.67;73.13;100348.97;5100292;28;20920;-71
2021/09/26 21:38:44;;;;;;;11.20;10.00;;;;;;;20.63;73.18;100338.72;5112422;28;20453;-71
2021/09/26 21:41:11;;;;;;;13.50;10.20;;;;;;;20.63;73.54;100339.56;5117357;27;20466;-72
2021/09/26 21:43:38;;;;;;;11.70;10.50;;;;;;;20.68;73.11;100333.53;5101247;28;20486;-71
2021/09/26 21:46:05;;;;;;;12.47;11.03;;;;;;;20.74;73.01;100329.16;5111077;27;20482;-70
2021/09/26 21:48:32;;;;;;;12.07;10.90;;;;;;;20.72;73.00;100336.66;5116377;28;20521;-71
2021/09/26 21:50:59;;;;;;;13.37;10.97;;;;;;;20.63;73.20;100336.84;5123048;28;20502;-71
2021/09/26 21:53:26;;;;;;;11.00;9.90;;;;;;;20.56;73.41;100346.00;5123745;28;20513;-71
2021/09/26 21:55:54;;;;;;;12.90;11.03;;;;;;;20.55;73.30;100338.88;5118005;28;20516;-71
2021/09/26 21:58:21;;;;;;;10.87;9.80;;;;;;;20.56;73.45;100335.97;5124154;28;20991;-70
2021/09/26 22:00:49;;;;;;;11.23;10.13;;;;;;;20.66;73.01;100339.16;5117906;27;20475;-70
2021/09/26 22:03:19;;;;;;;11.70;10.50;;;;;;;20.66;72.76;100336.44;5111448;28;20498;-71
2021/09/26 22:05:46;;;;;;;11.40;9.70;;;;;;;20.72;72.57;100337.50;5105636;28;20490;-70
2021/09/26 22:08:12;;;;;;;11.30;10.07;;;;;;;20.62;73.17;100340.63;5109172;28;20522;-71
2021/09/26 22:10:41;;;;;;;12.50;11.00;;;;;;;20.67;72.90;100331.84;5118183;27;20496;-71
2021/09/26 22:13:09;;;;;;;11.47;10.47;;;;;;;20.74;72.89;100337.28;5122958;28;20438;-70
2021/09/26 22:15:38;;;;;;;14.63;10.40;;;;;;;20.63;73.12;100339.56;5124154;27;20508;-70
2021/09/26 22:18:05;;;;;;;11.40;10.30;;;;;;;20.67;72.99;100337.28;5119001;28;20442;-71
2021/09/26 22:20:33;;;;;;;12.50;11.20;;;;;;;20.67;72.86;100338.09;5112530;28;20526;-72
2021/09/26 22:23:01;;;;;;;13.03;11.47;;;;;;;20.70;72.74;100336.88;5113506;28;20506;-71
2021/09/26 22:25:31;;;;;;;11.37;10.23;;;;;;;20.64;73.12;100338.53;5104083;28;20546;-71
2021/09/26 22:27:58;;;;;;;11.03;9.93;;;;;;;20.71;72.69;100344.00;5107718;28;21395;-71
2021/09/26 22:30:28;;;;;;;12.00;10.57;;;;;;;20.75;72.47;100337.09;5123076;27;20466;-71
2021/09/26 22:32:55;;;;;;;11.50;10.30;;;;;;;20.58;72.81;100350.16;5121228;28;20529;-71
2021/09/26 22:35:23;;;;;;;11.50;10.40;;;;;;;20.58;73.06;100341.19;5123932;27;20465;-71
2021/09/26 22:37:50;;;;;;;12.20;11.00;;;;;;;20.57;73.04;100331.34;5112630;28;20530;-71
2021/09/26 22:40:18;;;;;;;12.67;11.37;;;;;;;20.53;73.00;100328.22;5109860;27;20446;-70
2021/09/26 22:42:44;;;;;;;12.63;10.67;;;;;;;20.42;73.56;100328.81;5112907;28;20493;-70
2021/09/26 22:45:12;;;;;;;11.13;10.03;;;;;;;20.37;73.47;100326.69;5105344;27;20503;-71
2021/09/26 22:47:40;;;;;;;11.93;10.10;;;;;;;20.35;73.65;100330.69;5115375;27;20545;-71
2021/09/26 22:50:09;;;;;;;12.93;10.23;;;;;;;20.32;73.76;100332.72;5112285;28;20552;-72
2021/09/26 22:52:37;;;;;;;11.63;10.30;;;;;;;20.27;73.88;100326.25;5112758;28;20485;-71
2021/09/26 22:55:04;;;;;;;13.93;11.10;;;;;;;20.25;73.98;100325.63;5114510;28;20515;-71
2021/09/26 22:57:30;;;;;;;11.97;10.70;;;;;;;20.23;73.94;100324.97;5114056;28;20544;-71
2021/09/26 22:59:57;;;;;;;12.93;10.73;;;;;;;20.16;74.21;100324.94;5121525;28;20904;-71
2021/09/26 23:02:24;;;;;;;12.80;11.50;;;;;;;20.15;74.40;100327.84;5114843;27;20511;-71
2021/09/26 23:04:52;;;;;;;11.93;10.80;;;;;;;20.09;74.54;100334.94;5103378;28;20534;-70
2021/09/26 23:07:19;;;;;;;11.43;10.43;;;;;;;20.05;74.46;100334.50;5122590;27;20482;-70
2021/09/26 23:09:45;;;;;;;12.00;10.90;;;;;;;20.10;74.24;100326.59;5118534;28;20514;-70
2021/09/26 23:12:12;;;;;;;11.77;10.70;;;;;;;20.07;74.60;100327.00;5114941;27;20573;-70
2021/09/26 23:14:38;;;;;;;12.53;11.03;;;;;;;20.06;74.38;100336.16;5107471;28;20445;-70
2021/09/26 23:17:05;;;;;;;14.33;11.90;;;;;;;20.08;74.32;100327.81;5109029;28;20573;-71
2021/09/26 23:19:32;;;;;;;13.33;11.97;;;;;;;20.13;74.18;100328.88;5109235;28;20450;-70
2021/09/26 23:22:00;;;;;;;12.20;10.97;;;;;;;20.16;74.13;100340.41;5102445;28;20846;-70
2021/09/26 23:24:27;;;;;;;14.23;11.60;;;;;;;20.20;73.80;100334.34;5115675;28;20494;-71
2021/09/26 23:26:53;;;;;;;13.10;11.40;;;;;;;20.20;73.88;100328.91;5117964;27;20510;-71
2021/09/26 23:29:21;;;;;;;12.27;11.00;;;;;;;20.13;74.06;100328.88;5108787;28;20529;-71
2021/09/26 23:31:48;;;;;;;10.77;9.77;;;;;;;20.18;73.99;100330.19;5111815;27;20852;-71
2021/09/26 23:34:15;;;;;;;11.10;9.97;;;;;;;20.19;73.72;100337.25;5123370;28;20466;-70
2021/09/26 23:36:41;;;;;;;12.10;10.87;;;;;;;20.12;74.07;100339.97;5109509;27;20566;-70
2021/09/26 23:39:09;;;;;;;11.53;10.43;;;;;;;20.03;74.46;100336.59;5106218;28;20518;-70
2021/09/26 23:41:36;;;;;;;11.23;10.13;;;;;;;20.28;73.42;100341.50;5120339;27;20498;-70
2021/09/26 23:44:03;;;;;;;11.47;10.17;;;;;;;20.32;73.32;100334.63;5108310;28;20486;-70
2021/09/26 23:46:30;;;;;;;11.63;10.43;;;;;;;20.29;73.15;100333.16;5103184;28;20558;-71
2021/09/26 23:48:58;;;;;;;12.60;11.10;;;;;;;20.33;73.04;100333.59;5107422;28;20483;-71
2021/09/26 23:51:27;;;;;;;11.70;10.63;;;;;;;20.30;73.47;100332.09;5108726;28;20502;-71
2021/09/26 23:53:55;;;;;;;12.00;10.80;;;;;;;20.38;73.26;100339.25;5102864;28;20438;-71
2021/09/26 23:56:23;;;;;;;11.03;9.80;;;;;;;20.33;73.38;100341.72;5113656;27;20502;-71
2021/09/26 23:58:49;;;;;;;13.00;10.37;;;;;;;20.34;73.37;100334.41;5122786;28;20529;-71
